Terminal Aerodrome Forecast
Issued by NWS

Home | Current Version | Previous Version | Text Only | Print | Product List | Glossary On
Versions: 1 2 3 4 5 6 7 8 9 10 11 12 13 14 15 16 17 18 19 20
000
FTUS42 KMHX 011124
TAFPGV
TAF
KPGV 011124Z 0112/0212 00000KT 4SM BR BKN250
     FM011300 VRB02KT P6SM BKN250
     FM011800 24005KT P6SM FEW050
     FM020000 VRB02KT P6SM SCT250
     FM020900 00000KT 3SM BR SCT250
      AMD LTD TO CLD VIS AND WIND=

USA.gov is the U.S. government's official web portal to all federal, state and local government web resources and services.